Time;durP1;ratioP1;P1;durP2;ratioP2;P2;SDS_P1;SDS_P2;PMS_P1;PMS_P2;Temp;Humidity;BMP_temperature;BMP_pressure;BME280_temperature;BME280_humidity;BME280_pressure;Samples;Min_cycle;Max_cycle;Signal;HPM_P1;HPM_P2
2022/04/03 00:00:46;;;;;;;4.00;1.10;;;1.90;68.50;1.70;100630.00;;;;4839233;28;109142;-68
2022/04/03 00:03:11;;;;;;;1.80;0.67;;;1.90;68.40;1.70;100638.00;;;;4852844;28;106436;-68
2022/04/03 00:05:43;;;;;;;0.53;0.53;;;2.00;68.70;1.70;100628.00;;;;4839163;28;88516;-69
2022/04/03 00:08:10;;;;;;;0.70;0.70;;;1.90;68.50;1.70;100634.00;;;;4839621;28;87282;-69
2022/04/03 00:10:36;;;;;;;2.93;0.73;;;1.90;68.50;1.60;100637.00;;;;4822311;28;87668;-67
2022/04/03 00:13:03;;;;;;;0.50;0.40;;;1.90;68.60;1.60;100636.00;;;;4839746;28;88736;-67
2022/04/03 00:15:29;;;;;;;0.83;0.83;;;1.80;68.50;1.60;100633.00;;;;4838261;28;89028;-69
2022/04/03 00:17:55;;;;;;;2.67;0.77;;;1.80;68.50;1.60;100636.00;;;;4839582;28;87826;-67
2022/04/03 00:20:20;;;;;;;0.50;0.50;;;1.80;68.60;1.60;100640.00;;;;4837764;28;108100;-68
2022/04/03 00:22:49;;;;;;;0.77;0.70;;;1.80;68.60;1.50;100639.00;;;;4837902;28;117773;-68
2022/04/03 00:25:18;;;;;;;0.93;0.83;;;1.80;68.60;1.50;100634.00;;;;4838287;28;88968;-68
2022/04/03 00:27:46;;;;;;;3.73;1.03;;;1.70;68.70;1.50;100648.00;;;;4853459;28;87821;-69
2022/04/03 00:30:13;;;;;;;2.23;1.37;;;1.80;68.60;1.40;100644.00;;;;4839212;28;87958;-68
2022/04/03 00:32:40;;;;;;;1.20;1.10;;;1.70;68.50;1.40;100644.00;;;;4844525;28;87155;-67
2022/04/03 00:35:07;;;;;;;1.20;0.87;;;1.60;68.50;1.40;100649.00;;;;4838956;28;87992;-67
2022/04/03 00:37:33;;;;;;;1.87;1.13;;;1.70;68.80;1.40;100648.00;;;;4837384;28;100336;-68
2022/04/03 00:39:59;;;;;;;1.60;0.57;;;1.60;68.70;1.30;100648.00;;;;4839236;28;88852;-67
2022/04/03 00:42:26;;;;;;;0.73;0.63;;;2.40;69.20;1.30;100654.00;;;;4837890;28;117865;-67
2022/04/03 00:44:52;;;;;;;0.60;0.60;;;1.60;68.90;1.30;100644.00;;;;4838501;28;100487;-69
2022/04/03 00:47:20;;;;;;;2.33;0.80;;;1.50;69.20;1.20;100656.00;;;;4838187;28;100696;-69
2022/04/03 00:49:46;;;;;;;0.67;0.63;;;1.50;69.20;1.20;100652.00;;;;4838744;28;87817;-70
2022/04/03 00:52:12;;;;;;;1.70;0.70;;;1.40;69.20;1.10;100655.00;;;;4831631;28;98470;-70
2022/04/03 00:54:38;;;;;;;2.00;0.80;;;1.40;69.40;1.10;100658.00;;;;4835679;28;116751;-68
2022/04/03 00:57:07;;;;;;;1.87;1.00;;;1.30;69.60;1.00;100663.00;;;;4838025;28;109668;-67
2022/04/03 00:59:35;;;;;;;0.87;0.73;;;1.30;69.80;0.90;100659.00;;;;4838733;28;87751;-69
2022/04/03 01:02:02;;;;;;;0.73;0.73;;;1.20;69.90;0.80;100665.00;;;;4838964;28;88748;-67
2022/04/03 01:04:28;;;;;;;1.13;0.83;;;1.10;70.10;0.80;100665.00;;;;4852897;28;88834;-68
2022/04/03 01:06:54;;;;;;;1.33;0.47;;;1.10;70.30;0.70;100656.00;;;;4838624;28;87692;-68
2022/04/03 01:09:20;;;;;;;1.97;1.03;;;0.90;70.50;0.60;100668.00;;;;4839986;28;87885;-67
2022/04/03 01:11:46;;;;;;;2.70;1.77;;;0.90;70.90;0.50;100654.00;;;;4851828;28;113659;-69
2022/04/03 01:14:11;;;;;;;0.87;0.87;;;0.90;71.00;0.40;100655.00;;;;4837090;28;116423;-67
2022/04/03 01:16:38;;;;;;;1.10;0.97;;;0.80;71.50;0.40;100662.00;;;;4837861;28;110933;-68
2022/04/03 01:19:04;;;;;;;0.90;0.77;;;0.80;71.80;0.30;100658.00;;;;4842141;28;87808;-68
2022/04/03 01:21:30;;;;;;;1.40;1.07;;;0.60;72.00;0.30;100670.00;;;;4841611;28;88002;-69
2022/04/03 01:23:56;;;;;;;1.20;1.10;;;0.60;72.30;0.20;100664.00;;;;4841622;28;90931;-69
2022/04/03 01:26:25;;;;;;;1.37;0.97;;;0.50;72.40;0.10;100662.00;;;;4842396;28;87452;-70
2022/04/03 01:28:51;;;;;;;0.90;0.90;;;0.40;72.70;0.10;100660.00;;;;4841511;28;88885;-69
2022/04/03 01:31:18;;;;;;;1.10;0.90;;;0.40;73.00;0.00;100661.00;;;;4840782;28;114126;-69
2022/04/03 01:33:44;;;;;;;1.37;0.90;;;0.60;73.60;0.00;100673.00;;;;4854864;28;103527;-68
2022/04/03 01:36:10;;;;;;;1.10;1.00;;;0.30;73.70;-0.10;100667.00;;;;4841553;28;87919;-68
2022/04/03 01:38:36;;;;;;;1.67;0.70;;;0.30;73.80;-0.20;100668.00;;;;4841111;28;108984;-68
2022/04/03 01:41:01;;;;;;;1.63;1.07;;;0.10;74.00;-0.30;100658.00;;;;4840667;28;88349;-68
2022/04/03 01:43:27;;;;;;;0.80;0.80;;;0.80;74.80;-0.30;100667.00;;;;4840982;28;88336;-68
2022/04/03 01:45:53;;;;;;;1.20;0.93;;;0.20;74.70;-0.40;100662.00;;;;4841807;28;87240;-68
2022/04/03 01:48:19;;;;;;;1.83;0.90;;;0.00;74.80;-0.40;100668.00;;;;4840834;28;107463;-70
2022/04/03 01:50:45;;;;;;;0.97;0.83;;;0.10;75.40;-0.50;100657.00;;;;4841821;28;88047;-68
2022/04/03 01:53:10;;;;;;;1.43;1.27;;;-0.10;75.50;-0.60;100666.00;;;;4843909;28;88657;-70
2022/04/03 01:55:36;;;;;;;0.93;0.77;;;0.70;76.50;-0.60;100662.00;;;;4841220;28;109896;-68
2022/04/03 01:58:08;;;;;;;2.43;0.80;;;-0.30;76.20;-0.70;100666.00;;;;4841847;28;87916;-70
2022/04/03 02:00:34;;;;;;;2.00;1.00;;;-0.20;77.10;-0.70;100669.00;;;;4823303;28;89456;-70
2022/04/03 02:03:00;;;;;;;1.33;1.20;;;-0.30;77.10;-0.80;100668.00;;;;4838548;28;96000;-69
2022/04/03 02:05:25;;;;;;;1.03;0.97;;;-0.40;77.50;-0.90;100668.00;;;;4853890;28;110930;-69
2022/04/03 02:07:51;;;;;;;2.13;0.80;;;-0.50;77.70;-0.90;100664.00;;;;4840776;28;88037;-68
2022/04/03 02:10:17;;;;;;;0.80;0.80;;;-0.60;78.10;-1.00;100666.00;;;;4840795;28;116069;-69
2022/04/03 02:12:43;;;;;;;1.10;0.90;;;-0.50;78.70;-1.00;100662.00;;;;4853695;28;115202;-69
2022/04/03 02:15:15;;;;;;;1.50;1.00;;;0.30;79.60;-1.10;100673.00;;;;4841267;28;87719;-70
2022/04/03 02:17:41;;;;;;;1.20;1.10;;;-0.50;79.30;-1.20;100668.00;;;;4840587;28;88452;-70
2022/04/03 02:20:09;;;;;;;2.40;1.07;;;-0.80;79.40;-1.20;100674.00;;;;4841280;28;89571;-70
2022/04/03 02:22:35;;;;;;;1.00;0.70;;;-0.80;79.80;-1.30;100674.00;;;;4840655;28;88044;-70
2022/04/03 02:25:04;;;;;;;2.00;1.10;;;-0.80;80.20;-1.40;100667.00;;;;4840818;28;87691;-70
2022/04/03 02:27:30;;;;;;;3.27;1.10;;;-0.90;80.80;-1.40;100670.00;;;;4823159;28;87746;-68
2022/04/03 02:29:56;;;;;;;0.80;0.77;;;-0.90;81.30;-1.40;100682.00;;;;4840694;28;88124;-68
2022/04/03 02:32:22;;;;;;;1.60;1.13;;;-1.00;81.70;-1.50;100681.00;;;;4840134;28;88268;-67
2022/04/03 02:34:48;;;;;;;0.70;0.60;;;-1.10;82.10;-1.50;100678.00;;;;4840701;28;87238;-68
2022/04/03 02:37:14;;;;;;;1.07;0.87;;;-1.10;82.50;-1.60;100676.00;;;;4839829;28;108933;-68
2022/04/03 02:39:41;;;;;;;1.73;0.90;;;-1.20;82.90;-1.70;100683.00;;;;4840462;28;89404;-68
2022/04/03 02:42:07;;;;;;;1.33;1.23;;;-1.30;83.30;-1.80;100677.00;;;;4840302;28;88987;-68
2022/04/03 02:44:33;;;;;;;1.27;1.17;;;-1.40;83.70;-1.90;100683.00;;;;4839643;28;96909;-68
2022/04/03 02:46:58;;;;;;;0.83;0.63;;;-1.40;84.20;-1.90;100687.00;;;;4839552;28;108471;-67
2022/04/03 02:49:24;;;;;;;0.83;0.77;;;-1.50;84.60;-2.00;100681.00;;;;4839606;28;116824;-68
2022/04/03 02:51:50;;;;;;;2.67;0.90;;;-1.60;85.10;-2.10;100683.00;;;;4846329;28;117057;-67
2022/04/03 02:54:16;;;;;;;2.00;1.10;;;-1.60;85.60;-2.10;100688.00;;;;4832340;28;88219;-67
2022/04/03 02:56:41;;;;;;;1.43;1.00;;;-1.70;86.00;-2.20;100687.00;;;;4839468;28;109079;-67
2022/04/03 02:59:07;;;;;;;1.13;1.03;;;-1.80;86.40;-2.30;100689.00;;;;4838990;28;118621;-69
2022/04/03 03:01:33;;;;;;;1.20;0.90;;;-1.80;87.00;-2.30;100691.00;;;;4839402;28;117086;-67
2022/04/03 03:03:59;;;;;;;1.17;0.93;;;-1.30;88.00;-2.30;100687.00;;;;4839434;28;100839;-67
2022/04/03 03:06:24;;;;;;;0.90;0.90;;;-1.90;88.00;-2.40;100691.00;;;;4839515;28;88986;-68
2022/04/03 03:08:50;;;;;;;3.63;1.60;;;-1.90;88.60;-2.50;100681.00;;;;4822597;28;89975;-68
2022/04/03 03:11:16;;;;;;;1.10;1.00;;;-2.10;89.00;-2.50;100693.00;;;;4839114;28;117390;-69
2022/04/03 03:13:41;;;;;;;1.40;1.00;;;-2.10;89.70;-2.50;100691.00;;;;4839320;28;109997;-67
2022/04/03 03:16:07;;;;;;;1.20;0.97;;;-2.00;90.10;-2.60;100674.00;;;;4839262;28;108813;-67
2022/04/03 03:18:33;;;;;;;0.80;0.80;;;-2.10;90.30;-2.60;100679.00;;;;4839737;28;88748;-67
2022/04/03 03:20:59;;;;;;;3.83;1.47;;;-2.20;90.40;-2.70;100686.00;;;;4838905;28;116463;-68
2022/04/03 03:23:24;;;;;;;1.87;1.27;;;-2.20;90.60;-2.80;100687.00;;;;4839219;28;109236;-68
2022/04/03 03:25:50;;;;;;;0.87;0.83;;;-2.30;90.80;-2.80;100681.00;;;;4839334;28;108350;-68
2022/04/03 03:28:17;;;;;;;1.00;0.93;;;-2.40;91.00;-2.90;100681.00;;;;4838477;28;89060;-68
2022/04/03 03:30:43;;;;;;;1.37;1.20;;;-2.40;91.20;-3.00;100688.00;;;;4838671;28;117499;-69
2022/04/03 03:33:09;;;;;;;1.50;1.40;;;-2.50;91.30;-3.00;100690.00;;;;4839755;28;87735;-69
2022/04/03 03:35:34;;;;;;;2.67;0.93;;;-2.60;91.90;-3.00;100691.00;;;;4840159;28;87877;-68
2022/04/03 03:38:00;;;;;;;1.30;1.20;;;-2.60;92.00;-3.10;100684.00;;;;4838467;28;88674;-68
2022/04/03 03:40:27;;;;;;;2.03;1.27;;;-2.50;92.20;-3.10;100695.00;;;;4838103;28;115754;-68
2022/04/03 03:42:53;;;;;;;4.33;1.70;;;-2.60;92.30;-3.20;100686.00;;;;4839482;28;87422;-69
2022/04/03 03:45:19;;;;;;;1.43;1.30;;;-2.70;92.50;-3.30;100689.00;;;;4838908;28;108614;-67
2022/04/03 03:47:46;;;;;;;1.33;1.10;;;-2.70;92.70;-3.30;100692.00;;;;4839458;28;87272;-68
2022/04/03 03:50:13;;;;;;;0.93;0.80;;;-2.80;93.00;-3.30;100692.00;;;;4838171;28;115477;-68
2022/04/03 03:52:39;;;;;;;1.27;1.17;;;-2.80;93.30;-3.30;100687.00;;;;4851409;28;87535;-68
2022/04/03 03:55:06;;;;;;;1.23;0.97;;;-2.80;93.50;-3.40;100690.00;;;;4835968;28;102452;-68
2022/04/03 03:57:32;;;;;;;0.97;0.80;;;-2.90;93.70;-3.40;100684.00;;;;4838490;28;88323;-68
2022/04/03 03:59:57;;;;;;;1.70;1.27;;;-2.90;94.00;-3.40;100695.00;;;;4839674;28;88126;-67
2022/04/03 04:02:23;;;;;;;1.70;1.57;;;-2.90;94.10;-3.50;100698.00;;;;4838843;28;108531;-67
2022/04/03 04:04:49;;;;;;;1.37;1.13;;;-2.90;94.20;-3.50;100695.00;;;;4837356;28;109463;-67
2022/04/03 04:07:14;;;;;;;5.47;1.50;;;-3.20;94.40;-3.50;100701.00;;;;4838533;28;117973;-67
2022/04/03 04:09:41;;;;;;;2.20;1.43;;;-3.00;94.60;-3.60;100697.00;;;;4839014;28;88033;-67
2022/04/03 04:12:09;;;;;;;1.37;0.93;;;-3.10;94.80;-3.60;100704.00;;;;4839734;28;87349;-67
2022/04/03 04:14:36;;;;;;;3.57;1.40;;;-3.10;94.90;-3.60;100719.00;;;;4839434;28;87847;-67
2022/04/03 04:17:01;;;;;;;1.17;1.10;;;-3.20;95.20;-3.60;100713.00;;;;4821242;28;89576;-67
2022/04/03 04:19:28;;;;;;;4.00;1.33;;;-2.80;95.60;-3.70;100702.00;;;;4838207;28;110880;-67
2022/04/03 04:21:54;;;;;;;4.37;1.80;;;-3.20;95.60;-3.70;100716.00;;;;4853111;28;87807;-67
2022/04/03 04:24:19;;;;;;;1.73;1.63;;;-3.20;95.80;-3.70;100716.00;;;;4839032;28;98650;-67
2022/04/03 04:26:45;;;;;;;2.77;1.23;;;-3.30;96.00;-3.70;100714.00;;;;4839470;28;89199;-67
2022/04/03 04:29:11;;;;;;;2.83;1.83;;;-3.20;96.50;-3.70;100720.00;;;;4838228;28;117503;-67
2022/04/03 04:31:37;;;;;;;1.20;1.00;;;-3.20;96.70;-3.80;100728.00;;;;4839418;28;88210;-67
2022/04/03 04:34:03;;;;;;;3.80;1.50;;;-3.20;96.90;-3.80;100734.00;;;;4839045;28;109128;-66
2022/04/03 04:36:29;;;;;;;1.73;1.53;;;-3.20;97.00;-3.80;100739.00;;;;4839265;28;88083;-67
2022/04/03 04:38:56;;;;;;;2.43;1.33;;;-3.30;97.30;-3.80;100723.00;;;;4837829;28;94377;-66
2022/04/03 04:41:21;;;;;;;1.77;1.50;;;-3.30;97.70;-3.80;100743.00;;;;4838889;28;87717;-67
2022/04/03 04:43:47;;;;;;;4.63;1.97;;;-3.40;98.10;-3.80;100730.00;;;;4837368;28;107908;-66
2022/04/03 04:46:13;;;;;;;1.43;1.30;;;-3.30;98.40;-3.90;100746.00;;;;4838372;28;117845;-66
2022/04/03 04:48:38;;;;;;;3.43;1.80;;;-3.50;98.50;-3.90;100733.00;;;;4837441;28;116712;-67
2022/04/03 04:51:04;;;;;;;1.70;1.60;;;-4.20;98.40;-3.90;100738.00;;;;4841864;28;109543;-66
2022/04/03 04:53:30;;;;;;;1.50;1.40;;;-3.40;98.80;-3.90;100742.00;;;;4858485;28;106979;-67
2022/04/03 04:55:55;;;;;;;2.87;2.03;;;-3.40;99.00;-3.90;100741.00;;;;4844698;28;88318;-66
2022/04/03 04:58:21;;;;;;;4.00;2.33;;;-3.40;99.20;-3.90;100752.00;;;;4846540;28;118583;-67
2022/04/03 05:00:47;;;;;;;3.57;2.07;;;-3.40;99.30;-3.90;100747.00;;;;4848807;28;87068;-67
2022/04/03 05:03:12;;;;;;;3.40;1.90;;;-3.50;99.40;-3.80;100751.00;;;;4856063;28;108939;-67
2022/04/03 05:05:39;;;;;;;2.67;1.97;;;-2.50;99.90;-3.80;100754.00;;;;4841300;28;116342;-67
2022/04/03 05:08:05;;;;;;;2.83;1.50;;;-3.40;99.90;-3.80;100752.00;;;;4839827;28;115376;-67
2022/04/03 05:10:31;;;;;;;2.37;1.40;;;-3.30;99.90;-3.70;100775.00;;;;4824161;28;100822;-66
2022/04/03 05:12:57;;;;;;;2.87;2.13;;;-3.20;99.90;-3.60;100772.00;;;;4841575;28;94668;-67
2022/04/03 05:15:23;;;;;;;2.83;2.03;;;-3.20;99.90;-3.50;100782.00;;;;4841544;28;102425;-66
2022/04/03 05:17:49;;;;;;;2.13;1.93;;;-3.10;99.90;-3.40;100777.00;;;;4842841;28;94938;-67
2022/04/03 05:20:16;;;;;;;5.13;2.43;;;-3.00;99.90;-3.30;100765.00;;;;4840732;28;109156;-67
2022/04/03 05:22:43;;;;;;;2.23;2.03;;;-2.80;99.90;-3.10;100769.00;;;;4841568;28;91271;-67
2022/04/03 05:25:13;;;;;;;3.37;2.47;;;-2.70;99.90;-3.00;100781.00;;;;4842479;28;87922;-67
2022/04/03 05:27:40;;;;;;;2.20;1.97;;;-2.60;99.90;-2.80;100782.00;;;;4823132;28;88549;-67
2022/04/03 05:30:08;;;;;;;3.03;1.67;;;-2.50;99.90;-2.70;100775.00;;;;4841354;28;101803;-67
2022/04/03 05:32:35;;;;;;;1.33;1.20;;;-2.40;99.90;-2.50;100777.00;;;;4840238;28;88769;-67
2022/04/03 05:35:01;;;;;;;2.77;1.30;;;-2.20;99.90;-2.40;100778.00;;;;4841087;28;89082;-68
2022/04/03 05:37:27;;;;;;;1.87;1.63;;;-2.00;99.90;-2.20;100785.00;;;;4841779;28;88816;-69
2022/04/03 05:39:53;;;;;;;3.23;1.70;;;-1.80;99.90;-2.10;100783.00;;;;4841708;28;88138;-69
2022/04/03 05:42:20;;;;;;;1.07;1.03;;;-1.70;99.90;-1.90;100793.00;;;;4840603;28;87883;-68
2022/04/03 05:44:45;;;;;;;1.33;1.10;;;-1.50;99.90;-1.70;100790.00;;;;4842268;28;88267;-68
2022/04/03 05:47:11;;;;;;;1.40;1.30;;;-1.40;99.90;-1.60;100785.00;;;;4840352;28;103549;-68
2022/04/03 05:49:37;;;;;;;1.20;1.10;;;-1.30;99.90;-1.40;100782.00;;;;4841980;28;87067;-68
2022/04/03 05:52:04;;;;;;;1.30;1.20;;;-1.00;99.90;-1.20;100779.00;;;;4849698;28;109021;-68
2022/04/03 05:54:30;;;;;;;1.30;1.13;;;-0.90;99.90;-1.00;100795.00;;;;4855471;28;87937;-67
2022/04/03 05:56:56;;;;;;;1.30;1.20;;;-0.80;99.90;-0.90;100795.00;;;;4840569;28;88767;-66
2022/04/03 05:59:22;;;;;;;2.43;1.43;;;-0.60;99.90;-0.70;100805.00;;;;4822141;28;88126;-66
2022/04/03 06:01:48;;;;;;;1.13;1.00;;;-0.40;99.30;-0.40;100801.00;;;;4838606;28;87897;-67
2022/04/03 06:04:15;;;;;;;1.90;1.43;;;-0.30;98.90;-0.20;100804.00;;;;4836321;28;107267;-68
2022/04/03 06:06:41;;;;;;;1.13;0.70;;;0.00;98.30;-0.10;100797.00;;;;4837386;28;88332;-66
2022/04/03 06:09:07;;;;;;;0.70;0.63;;;0.20;97.70;0.20;100809.00;;;;4837106;28;88247;-66
2022/04/03 06:11:32;;;;;;;1.27;1.17;;;0.30;97.30;0.30;100807.00;;;;4836970;28;107961;-68
2022/04/03 06:13:58;;;;;;;1.47;0.73;;;0.60;96.80;0.50;100801.00;;;;4836464;28;115819;-68
2022/04/03 06:16:24;;;;;;;2.00;1.17;;;0.70;96.00;0.60;100805.00;;;;4837695;28;88330;-68
2022/04/03 06:18:52;;;;;;;0.90;0.87;;;1.30;95.60;0.90;100800.00;;;;4838042;28;87740;-67
2022/04/03 06:21:18;;;;;;;1.07;1.03;;;1.10;95.10;1.10;100813.00;;;;4837171;28;88821;-68
2022/04/03 06:23:44;;;;;;;1.70;0.67;;;1.30;94.60;1.30;100811.00;;;;4834030;28;115363;-69
2022/04/03 06:26:09;;;;;;;3.93;1.33;;;1.60;94.20;1.50;100815.00;;;;4835008;28;117765;-69
2022/04/03 06:28:35;;;;;;;1.00;0.77;;;2.10;93.70;1.80;100812.00;;;;4821960;28;108180;-67
2022/04/03 06:31:01;;;;;;;5.60;1.40;;;2.00;92.90;2.00;100823.00;;;;4835799;28;109144;-67
2022/04/03 06:33:27;;;;;;;0.83;0.77;;;2.20;92.00;2.20;100815.00;;;;4833121;28;109077;-67
2022/04/03 06:35:53;;;;;;;1.37;1.27;;;2.40;91.70;2.50;100817.00;;;;4835380;28;87916;-67
2022/04/03 06:38:19;;;;;;;1.20;0.83;;;2.60;91.30;2.80;100822.00;;;;4836480;28;87311;-68
2022/04/03 06:40:53;;;;;;;1.40;0.93;;;2.90;90.50;3.20;100822.00;;;;4837180;28;87773;-66
2022/04/03 06:43:24;;;;;;;3.97;1.10;;;3.30;90.00;3.60;100823.00;;;;4837346;28;88094;-67
2022/04/03 06:45:51;;;;;;;0.83;0.80;;;3.90;88.70;4.00;100826.00;;;;4836422;28;88865;-66
2022/04/03 06:48:17;;;;;;;2.03;1.40;;;3.90;87.20;4.40;100830.00;;;;4836166;28;87826;-68
2022/04/03 06:50:43;;;;;;;1.03;0.93;;;4.40;86.00;4.90;100828.00;;;;4836510;28;87892;-68
2022/04/03 06:53:09;;;;;;;3.40;1.10;;;4.90;83.80;5.30;100826.00;;;;4839187;28;99793;-67
2022/04/03 06:55:34;;;;;;;1.73;1.13;;;5.20;80.70;5.60;100834.00;;;;4835911;28;117715;-68
2022/04/03 06:58:01;;;;;;;1.50;1.10;;;5.60;76.50;5.90;100844.00;;;;4837042;28;87673;-68
2022/04/03 07:00:26;;;;;;;1.20;1.10;;;5.80;74.80;6.10;100826.00;;;;4837003;28;87931;-67
2022/04/03 07:02:52;;;;;;;1.07;0.60;;;6.10;70.60;6.30;100831.00;;;;4837846;28;88786;-69
2022/04/03 07:05:18;;;;;;;1.90;1.13;;;6.40;70.40;6.70;100844.00;;;;4835649;28;110875;-69
2022/04/03 07:07:44;;;;;;;1.50;1.03;;;6.80;69.30;6.90;100838.00;;;;4818621;28;87985;-67
2022/04/03 07:10:10;;;;;;;1.23;0.80;;;6.90;67.90;7.20;100849.00;;;;4835515;28;109288;-68
2022/04/03 07:12:37;;;;;;;1.07;0.70;;;7.20;65.00;7.20;100847.00;;;;4836154;28;89026;-68
2022/04/03 07:15:04;;;;;;;0.93;0.80;;;7.30;63.50;7.20;100848.00;;;;4815586;29;87884;-68
2022/04/03 07:17:30;;;;;;;2.87;0.70;;;7.30;62.60;7.20;100833.00;;;;4834978;28;88024;-67
2022/04/03 07:19:56;;;;;;;5.80;0.60;;;7.30;61.70;7.00;100844.00;;;;4836700;28;87775;-67
2022/04/03 07:22:22;;;;;;;0.30;0.30;;;8.10;60.90;6.80;100844.00;;;;4836557;28;89160;-66
2022/04/03 07:24:47;;;;;;;1.43;0.70;;;7.10;60.10;6.60;100839.00;;;;4835207;28;118670;-69
2022/04/03 07:27:13;;;;;;;0.67;0.67;;;6.90;59.90;6.40;100843.00;;;;4837052;28;86958;-69
2022/04/03 07:29:39;;;;;;;0.50;0.47;;;6.70;60.20;6.30;100843.00;;;;4835121;28;87970;-69
2022/04/03 07:32:05;;;;;;;1.60;0.73;;;7.00;60.40;6.20;100839.00;;;;4835993;28;88982;-69
2022/04/03 07:34:31;;;;;;;1.57;0.70;;;6.40;59.90;6.10;100844.00;;;;4833608;28;88903;-69
2022/04/03 07:36:57;;;;;;;1.03;0.93;;;6.30;60.00;6.00;100855.00;;;;4818150;28;110448;-69
2022/04/03 07:39:26;;;;;;;1.27;0.87;;;6.40;60.30;6.00;100860.00;;;;4836164;28;87973;-68
2022/04/03 07:41:52;;;;;;;0.97;0.83;;;6.20;59.60;6.00;100859.00;;;;4836152;28;88774;-67
2022/04/03 07:44:17;;;;;;;3.00;1.00;;;6.10;59.00;5.90;100855.00;;;;4834889;28;116690;-67
2022/04/03 07:46:43;;;;;;;1.80;0.80;;;6.00;58.70;5.70;100868.00;;;;4836750;28;87902;-69
2022/04/03 07:49:10;;;;;;;1.87;0.57;;;5.90;58.70;5.70;100861.00;;;;4834960;28;109167;-67
2022/04/03 07:51:36;;;;;;;4.43;1.07;;;5.90;58.90;5.60;100860.00;;;;4836706;28;87432;-66
2022/04/03 07:54:02;;;;;;;1.40;0.93;;;5.90;58.50;5.60;100871.00;;;;4836567;28;87838;-67
2022/04/03 07:56:29;;;;;;;1.37;0.73;;;5.70;58.30;5.60;100871.00;;;;4836123;28;87488;-69
2022/04/03 07:58:55;;;;;;;2.03;1.20;;;5.70;58.40;5.60;100868.00;;;;4836727;28;89068;-66
2022/04/03 08:01:21;;;;;;;0.87;0.87;;;5.70;58.30;5.70;100872.00;;;;4835506;28;107909;-68
2022/04/03 08:03:47;;;;;;;0.70;0.60;;;6.60;58.80;5.80;100878.00;;;;4835537;28;100714;-66
2022/04/03 08:06:12;;;;;;;1.70;0.87;;;5.80;58.50;5.90;100868.00;;;;4823892;28;87886;-68
2022/04/03 08:08:39;;;;;;;0.67;0.47;;;6.20;58.70;6.00;100866.00;;;;4833229;28;93457;-68
2022/04/03 08:11:05;;;;;;;3.80;0.97;;;6.00;58.80;6.10;100868.00;;;;4834746;28;88830;-67
2022/04/03 08:13:30;;;;;;;1.03;0.70;;;6.20;58.00;6.20;100867.00;;;;4817890;28;87904;-68
2022/04/03 08:15:56;;;;;;;0.70;0.70;;;6.20;57.80;6.30;100866.00;;;;4817190;28;109074;-69
2022/04/03 08:18:22;;;;;;;2.07;0.80;;;6.40;57.70;6.50;100872.00;;;;4833681;28;87672;-69
2022/04/03 08:20:48;;;;;;;1.00;0.83;;;6.50;57.50;6.60;100868.00;;;;4835339;28;88548;-67
2022/04/03 08:23:14;;;;;;;1.00;0.60;;;6.60;57.50;6.70;100880.00;;;;4833559;28;116093;-67
2022/04/03 08:25:39;;;;;;;1.70;1.00;;;6.60;56.90;6.80;100877.00;;;;4836290;28;87835;-68
2022/04/03 08:28:07;;;;;;;0.80;0.60;;;6.90;56.50;7.00;100867.00;;;;4841365;28;87705;-69
2022/04/03 08:30:38;;;;;;;1.57;0.70;;;7.00;56.20;7.10;100866.00;;;;4822877;28;90501;-67
2022/04/03 08:33:05;;;;;;;3.67;1.13;;;7.10;55.90;7.20;100880.00;;;;4841489;28;88180;-68
2022/04/03 08:35:32;;;;;;;1.37;0.80;;;7.20;55.80;7.40;100870.00;;;;4842573;28;87757;-71
2022/04/03 08:37:59;;;;;;;0.97;0.87;;;7.40;55.50;7.70;100871.00;;;;4841776;28;87621;-69
2022/04/03 08:40:26;;;;;;;4.63;0.87;;;7.60;55.00;7.90;100880.00;;;;4835745;28;88938;-70
2022/04/03 08:42:55;;;;;;;1.27;0.77;;;7.90;53.80;7.90;100880.00;;;;4841593;28;88525;-69
2022/04/03 08:45:22;;;;;;;0.67;0.60;;;7.90;53.00;8.00;100873.00;;;;4841271;28;99484;-70
2022/04/03 08:47:51;;;;;;;2.43;0.60;;;8.00;52.70;8.10;100869.00;;;;4841225;28;88979;-68
2022/04/03 08:50:19;;;;;;;2.73;1.00;;;8.10;52.20;8.10;100871.00;;;;4841274;28;87727;-69
2022/04/03 08:52:51;;;;;;;0.60;0.57;;;8.10;50.60;8.10;100868.00;;;;4827797;28;88147;-69
2022/04/03 08:55:18;;;;;;;1.80;0.93;;;8.20;50.30;8.10;100864.00;;;;4837082;28;88068;-67
2022/04/03 08:57:44;;;;;;;1.63;0.73;;;8.60;50.40;8.30;100866.00;;;;4841139;28;87891;-68
2022/04/03 09:00:11;;;;;;;1.63;0.90;;;8.30;50.10;8.40;100862.00;;;;4838118;28;87992;-70
2022/04/03 09:02:37;;;;;;;1.17;0.87;;;8.40;49.80;8.60;100875.00;;;;4841412;28;90219;-67
2022/04/03 09:05:09;;;;;;;3.10;1.00;;;8.50;49.60;8.80;100872.00;;;;4842457;28;87169;-67
2022/04/03 09:07:35;;;;;;;0.80;0.80;;;8.70;48.60;8.90;100860.00;;;;4845464;28;87765;-67
2022/04/03 09:10:14;;;;;;;1.23;0.83;;;8.90;46.70;8.90;100868.00;;;;4841186;28;89135;-67
2022/04/03 09:12:49;;;;;;;2.10;0.67;;;9.30;46.60;8.90;100858.00;;;;4837685;28;88997;-68
2022/04/03 09:15:22;;;;;;;1.37;0.90;;;9.00;43.70;8.80;100865.00;;;;4836164;28;89354;-69
2022/04/03 09:17:52;;;;;;;1.90;1.00;;;8.90;44.40;9.10;100866.00;;;;4855360;28;88183;-67
2022/04/03 09:20:30;;;;;;;1.10;0.60;;;9.00;45.30;9.60;100854.00;;;;4841249;28;88812;-68
2022/04/03 09:23:06;;;;;;;1.70;0.80;;;9.50;44.60;9.80;100871.00;;;;4822775;28;88283;-67
2022/04/03 09:25:38;;;;;;;0.60;0.60;;;9.70;42.30;9.80;100863.00;;;;4841276;28;88087;-70
2022/04/03 09:28:06;;;;;;;2.27;1.10;;;10.20;42.30;9.70;100869.00;;;;4817672;28;87795;-66
2022/04/03 09:30:49;;;;;;;1.17;1.00;;;9.80;41.40;9.60;100870.00;;;;3992857;28;10001058;-68
2022/04/03 09:33:20;;;;;;;0.90;0.70;;;9.70;41.50;9.60;100876.00;;;;4824498;28;87901;-67
2022/04/03 09:36:01;;;;;;;1.10;0.50;;;9.60;41.60;9.40;100867.00;;;;4825111;28;89126;-68
2022/04/03 09:38:28;;;;;;;1.00;0.57;;;9.50;40.70;9.10;100867.00;;;;4841188;28;88724;-67
2022/04/03 09:40:58;;;;;;;1.63;0.80;;;9.70;41.30;8.90;100868.00;;;;4839998;28;87984;-68
2022/04/03 09:43:32;;;;;;;0.87;0.73;;;9.10;40.80;8.70;100866.00;;;;4837272;28;87838;-67
2022/04/03 09:46:05;;;;;;;2.47;0.60;;;8.80;41.30;8.60;100871.00;;;;4837205;28;102858;-68
2022/04/03 09:48:40;;;;;;;2.60;0.63;;;8.70;41.70;8.70;100869.00;;;;4820247;28;87832;-68
2022/04/03 09:51:11;;;;;;;0.50;0.30;;;8.70;41.00;8.90;100867.00;;;;4839042;28;87907;-68
2022/04/03 09:53:46;;;;;;;0.73;0.70;;;8.80;41.40;9.30;100872.00;;;;4838448;28;87884;-68
2022/04/03 09:56:33;;;;;;;3.20;0.73;;;9.00;41.30;9.40;100868.00;;;;4837634;28;87168;-68
2022/04/03 09:59:02;;;;;;;0.93;0.73;;;9.20;39.80;9.00;100872.00;;;;4802640;28;89235;-67
2022/04/03 10:01:35;;;;;;;2.27;0.67;;;9.10;39.40;8.70;100880.00;;;;4837117;28;87970;-66
2022/04/03 10:04:04;;;;;;;0.80;0.80;;;8.80;39.90;8.60;100873.00;;;;4837005;28;88675;-69
2022/04/03 10:06:31;;;;;;;1.00;0.57;;;8.70;41.00;8.80;100879.00;;;;4837342;28;88552;-67
2022/04/03 10:08:58;;;;;;;1.97;1.10;;;8.70;41.60;9.00;100871.00;;;;4836910;28;88544;-68
2022/04/03 10:11:24;;;;;;;0.63;0.63;;;8.90;41.50;8.90;100878.00;;;;4837578;28;87486;-67
2022/04/03 10:13:50;;;;;;;2.00;0.50;;;8.90;40.90;8.90;100877.00;;;;4850748;28;87890;-69
2022/04/03 10:16:17;;;;;;;1.07;0.60;;;8.80;42.30;9.00;100873.00;;;;4819843;28;88222;-67
2022/04/03 10:18:44;;;;;;;1.27;0.93;;;8.90;42.10;9.00;100877.00;;;;4836835;28;88349;-67
2022/04/03 10:21:30;;;;;;;1.07;0.93;;;9.00;42.10;8.80;100882.00;;;;4836880;28;99193;-67
2022/04/03 10:24:06;;;;;;;1.23;0.70;;;8.90;42.40;8.60;100882.00;;;;4838045;28;87680;-67
2022/04/03 10:26:37;;;;;;;0.80;0.80;;;8.70;42.40;8.50;100874.00;;;;4836025;28;87663;-71
2022/04/03 10:29:09;;;;;;;1.03;0.83;;;8.60;42.90;8.40;100874.00;;;;4836458;28;88901;-67
2022/04/03 10:31:39;;;;;;;0.90;0.67;;;8.40;42.80;8.10;100866.00;;;;4836878;28;87776;-66
2022/04/03 10:34:06;;;;;;;1.70;0.87;;;8.20;42.80;7.90;100862.00;;;;4836512;28;88013;-66
2022/04/03 10:36:36;;;;;;;0.63;0.63;;;8.00;43.50;7.80;100870.00;;;;4835422;28;87906;-68
2022/04/03 10:39:09;;;;;;;0.70;0.70;;;7.90;44.00;7.70;100866.00;;;;4836156;28;87768;-67
2022/04/03 10:41:45;;;;;;;2.17;0.90;;;7.90;44.70;7.60;100864.00;;;;4836157;28;95583;-67
2022/04/03 10:44:24;;;;;;;1.07;0.73;;;7.70;45.10;7.60;100867.00;;;;4819069;28;88416;-69
2022/04/03 10:47:02;;;;;;;1.03;0.77;;;7.70;45.50;7.50;100861.00;;;;4836743;28;87033;-68
2022/04/03 10:49:41;;;;;;;0.80;0.60;;;7.60;45.60;7.80;100868.00;;;;4838029;28;88032;-69
2022/04/03 10:52:21;;;;;;;0.93;0.57;;;7.70;45.60;8.30;100865.00;;;;4827046;28;87924;-67